sensor_id;sensor_type;location;lat;lon;timestamp;P1;durP1;ratioP1;P2;durP2;ratioP2
23628;SDS011;11991;57.150;-2.134;2023-12-20T00:00:36;0.95;;;0.82;;
23628;SDS011;11991;57.150;-2.134;2023-12-20T00:03:07;0.85;;;0.40;;
23628;SDS011;11991;57.150;-2.134;2023-12-20T00:05:34;0.47;;;0.47;;
23628;SDS011;11991;57.150;-2.134;2023-12-20T00:08:02;0.70;;;0.47;;
23628;SDS011;11991;57.150;-2.134;2023-12-20T00:10:32;0.90;;;0.40;;
23628;SDS011;11991;57.150;-2.134;2023-12-20T00:12:59;1.70;;;0.40;;
23628;SDS011;11991;57.150;-2.134;2023-12-20T00:15:26;0.97;;;0.47;;
23628;SDS011;11991;57.150;-2.134;2023-12-20T00:17:53;1.80;;;0.50;;
23628;SDS011;11991;57.150;-2.134;2023-12-20T00:20:20;0.87;;;0.40;;
23628;SDS011;11991;57.150;-2.134;2023-12-20T00:22:48;0.40;;;0.40;;
23628;SDS011;11991;57.150;-2.134;2023-12-20T00:25:15;0.53;;;0.50;;
23628;SDS011;11991;57.150;-2.134;2023-12-20T00:27:42;0.40;;;0.40;;
23628;SDS011;11991;57.150;-2.134;2023-12-20T00:30:10;0.40;;;0.40;;
23628;SDS011;11991;57.150;-2.134;2023-12-20T00:32:38;1.23;;;0.50;;
23628;SDS011;11991;57.150;-2.134;2023-12-20T00:35:05;0.30;;;0.30;;
23628;SDS011;11991;57.150;-2.134;2023-12-20T00:37:33;0.50;;;0.50;;
23628;SDS011;11991;57.150;-2.134;2023-12-20T00:40:00;1.05;;;0.52;;
23628;SDS011;11991;57.150;-2.134;2023-12-20T00:42:27;1.47;;;0.53;;
23628;SDS011;11991;57.150;-2.134;2023-12-20T00:44:54;0.50;;;0.40;;
23628;SDS011;11991;57.150;-2.134;2023-12-20T00:47:22;1.03;;;0.60;;
23628;SDS011;11991;57.150;-2.134;2023-12-20T00:49:49;1.83;;;0.65;;
23628;SDS011;11991;57.150;-2.134;2023-12-20T00:52:16;2.15;;;1.17;;
23628;SDS011;11991;57.150;-2.134;2023-12-20T00:54:44;1.77;;;0.77;;
23628;SDS011;11991;57.150;-2.134;2023-12-20T00:57:11;1.53;;;0.60;;
23628;SDS011;11991;57.150;-2.134;2023-12-20T00:59:38;2.75;;;0.80;;
23628;SDS011;11991;57.150;-2.134;2023-12-20T01:02:05;1.50;;;0.80;;
23628;SDS011;11991;57.150;-2.134;2023-12-20T01:04:32;2.60;;;0.80;;
23628;SDS011;11991;57.150;-2.134;2023-12-20T01:07:00;3.20;;;1.03;;
23628;SDS011;11991;57.150;-2.134;2023-12-20T01:09:27;3.13;;;0.90;;
23628;SDS011;11991;57.150;-2.134;2023-12-20T01:11:54;4.97;;;1.20;;
23628;SDS011;11991;57.150;-2.134;2023-12-20T01:14:21;5.13;;;1.00;;
23628;SDS011;11991;57.150;-2.134;2023-12-20T01:16:48;4.43;;;1.40;;
23628;SDS011;11991;57.150;-2.134;2023-12-20T01:19:15;1.33;;;0.80;;
23628;SDS011;11991;57.150;-2.134;2023-12-20T01:21:43;2.73;;;0.80;;
23628;SDS011;11991;57.150;-2.134;2023-12-20T01:24:10;2.13;;;1.53;;
23628;SDS011;11991;57.150;-2.134;2023-12-20T01:26:37;1.90;;;0.93;;
23628;SDS011;11991;57.150;-2.134;2023-12-20T01:29:04;4.27;;;1.07;;
23628;SDS011;11991;57.150;-2.134;2023-12-20T01:31:32;4.23;;;1.03;;
23628;SDS011;11991;57.150;-2.134;2023-12-20T01:33:59;3.63;;;0.90;;
23628;SDS011;11991;57.150;-2.134;2023-12-20T01:36:26;3.27;;;1.10;;
23628;SDS011;11991;57.150;-2.134;2023-12-20T01:38:53;4.70;;;1.60;;
23628;SDS011;11991;57.150;-2.134;2023-12-20T01:41:20;5.07;;;1.40;;
23628;SDS011;11991;57.150;-2.134;2023-12-20T01:43:48;3.83;;;1.10;;
23628;SDS011;11991;57.150;-2.134;2023-12-20T01:46:17;4.33;;;1.10;;
23628;SDS011;11991;57.150;-2.134;2023-12-20T01:48:47;4.53;;;1.77;;
23628;SDS011;11991;57.150;-2.134;2023-12-20T01:51:15;4.27;;;1.30;;
23628;SDS011;11991;57.150;-2.134;2023-12-20T01:53:43;4.20;;;1.23;;
23628;SDS011;11991;57.150;-2.134;2023-12-20T01:56:10;5.50;;;1.40;;
23628;SDS011;11991;57.150;-2.134;2023-12-20T01:58:39;6.53;;;1.57;;
23628;SDS011;11991;57.150;-2.134;2023-12-20T02:01:11;3.93;;;1.17;;
23628;SDS011;11991;57.150;-2.134;2023-12-20T02:03:43;11.57;;;2.50;;
23628;SDS011;11991;57.150;-2.134;2023-12-20T02:06:10;6.47;;;2.20;;
23628;SDS011;11991;57.150;-2.134;2023-12-20T02:08:38;3.03;;;1.73;;
23628;SDS011;11991;57.150;-2.134;2023-12-20T02:11:05;4.73;;;1.83;;
23628;SDS011;11991;57.150;-2.134;2023-12-20T02:13:32;3.47;;;1.20;;
23628;SDS011;11991;57.150;-2.134;2023-12-20T02:16:00;5.30;;;1.57;;
23628;SDS011;11991;57.150;-2.134;2023-12-20T02:18:27;6.23;;;1.70;;
23628;SDS011;11991;57.150;-2.134;2023-12-20T02:20:55;3.77;;;1.27;;
23628;SDS011;11991;57.150;-2.134;2023-12-20T02:23:22;7.83;;;2.00;;
23628;SDS011;11991;57.150;-2.134;2023-12-20T02:25:50;4.20;;;2.00;;
23628;SDS011;11991;57.150;-2.134;2023-12-20T02:28:17;6.80;;;1.50;;
23628;SDS011;11991;57.150;-2.134;2023-12-20T02:30:45;9.97;;;2.33;;
23628;SDS011;11991;57.150;-2.134;2023-12-20T02:33:12;7.73;;;2.00;;
23628;SDS011;11991;57.150;-2.134;2023-12-20T02:35:41;7.87;;;2.40;;
23628;SDS011;11991;57.150;-2.134;2023-12-20T02:38:08;5.40;;;1.30;;
23628;SDS011;11991;57.150;-2.134;2023-12-20T02:40:36;8.07;;;2.20;;
23628;SDS011;11991;57.150;-2.134;2023-12-20T02:43:03;6.23;;;1.70;;
23628;SDS011;11991;57.150;-2.134;2023-12-20T02:45:30;6.57;;;1.57;;
23628;SDS011;11991;57.150;-2.134;2023-12-20T02:47:57;11.20;;;2.07;;
23628;SDS011;11991;57.150;-2.134;2023-12-20T02:50:25;11.43;;;2.03;;
23628;SDS011;11991;57.150;-2.134;2023-12-20T02:52:52;5.67;;;1.77;;
23628;SDS011;11991;57.150;-2.134;2023-12-20T02:55:19;4.13;;;1.33;;
23628;SDS011;11991;57.150;-2.134;2023-12-20T02:57:46;6.60;;;1.50;;
23628;SDS011;11991;57.150;-2.134;2023-12-20T03:00:14;3.93;;;1.60;;
23628;SDS011;11991;57.150;-2.134;2023-12-20T03:02:41;6.80;;;1.63;;
23628;SDS011;11991;57.150;-2.134;2023-12-20T03:05:08;3.93;;;1.10;;
23628;SDS011;11991;57.150;-2.134;2023-12-20T03:07:36;8.80;;;1.97;;
23628;SDS011;11991;57.150;-2.134;2023-12-20T03:10:04;6.03;;;2.00;;
23628;SDS011;11991;57.150;-2.134;2023-12-20T03:12:45;6.27;;;1.73;;
23628;SDS011;11991;57.150;-2.134;2023-12-20T03:15:13;6.47;;;1.80;;
23628;SDS011;11991;57.150;-2.134;2023-12-20T03:17:40;4.00;;;1.50;;
23628;SDS011;11991;57.150;-2.134;2023-12-20T03:20:08;3.40;;;1.30;;
23628;SDS011;11991;57.150;-2.134;2023-12-20T03:22:36;2.33;;;0.97;;
23628;SDS011;11991;57.150;-2.134;2023-12-20T03:25:03;4.50;;;1.50;;
23628;SDS011;11991;57.150;-2.134;2023-12-20T03:27:30;5.77;;;1.23;;
23628;SDS011;11991;57.150;-2.134;2023-12-20T03:29:57;4.10;;;1.57;;
23628;SDS011;11991;57.150;-2.134;2023-12-20T03:32:24;3.40;;;1.30;;
23628;SDS011;11991;57.150;-2.134;2023-12-20T03:34:51;4.07;;;1.10;;
23628;SDS011;11991;57.150;-2.134;2023-12-20T03:37:19;2.53;;;1.17;;
23628;SDS011;11991;57.150;-2.134;2023-12-20T03:39:46;6.67;;;1.23;;
23628;SDS011;11991;57.150;-2.134;2023-12-20T03:42:13;4.57;;;1.60;;
23628;SDS011;11991;57.150;-2.134;2023-12-20T03:44:40;5.87;;;1.50;;
23628;SDS011;11991;57.150;-2.134;2023-12-20T03:47:08;5.40;;;1.50;;
23628;SDS011;11991;57.150;-2.134;2023-12-20T03:49:35;6.57;;;1.30;;
23628;SDS011;11991;57.150;-2.134;2023-12-20T03:52:04;4.70;;;1.37;;
23628;SDS011;11991;57.150;-2.134;2023-12-20T03:54:32;4.10;;;1.50;;
23628;SDS011;11991;57.150;-2.134;2023-12-20T03:56:59;5.07;;;1.30;;
23628;SDS011;11991;57.150;-2.134;2023-12-20T03:59:26;9.13;;;2.17;;
23628;SDS011;11991;57.150;-2.134;2023-12-20T04:01:53;5.73;;;2.10;;
23628;SDS011;11991;57.150;-2.134;2023-12-20T04:04:21;3.50;;;1.53;;
23628;SDS011;11991;57.150;-2.134;2023-12-20T04:06:48;9.17;;;1.60;;
23628;SDS011;11991;57.150;-2.134;2023-12-20T04:09:15;2.80;;;1.23;;
23628;SDS011;11991;57.150;-2.134;2023-12-20T04:11:42;3.83;;;1.40;;
23628;SDS011;11991;57.150;-2.134;2023-12-20T04:14:09;3.73;;;1.63;;
23628;SDS011;11991;57.150;-2.134;2023-12-20T04:16:37;2.97;;;1.03;;
23628;SDS011;11991;57.150;-2.134;2023-12-20T04:19:05;1.50;;;0.90;;
23628;SDS011;11991;57.150;-2.134;2023-12-20T04:21:32;4.37;;;1.10;;
23628;SDS011;11991;57.150;-2.134;2023-12-20T04:24:00;2.30;;;1.20;;
23628;SDS011;11991;57.150;-2.134;2023-12-20T04:26:27;6.70;;;2.00;;
23628;SDS011;11991;57.150;-2.134;2023-12-20T04:28:54;3.17;;;1.10;;
23628;SDS011;11991;57.150;-2.134;2023-12-20T04:31:21;4.80;;;1.67;;
23628;SDS011;11991;57.150;-2.134;2023-12-20T04:33:48;7.03;;;2.20;;
23628;SDS011;11991;57.150;-2.134;2023-12-20T04:36:15;6.13;;;1.80;;
23628;SDS011;11991;57.150;-2.134;2023-12-20T04:38:42;5.67;;;1.60;;
23628;SDS011;11991;57.150;-2.134;2023-12-20T04:41:10;6.10;;;2.03;;
23628;SDS011;11991;57.150;-2.134;2023-12-20T04:43:37;4.80;;;1.43;;
23628;SDS011;11991;57.150;-2.134;2023-12-20T04:46:04;4.30;;;1.30;;
23628;SDS011;11991;57.150;-2.134;2023-12-20T04:48:31;6.57;;;1.97;;
23628;SDS011;11991;57.150;-2.134;2023-12-20T04:50:58;6.67;;;1.87;;
23628;SDS011;11991;57.150;-2.134;2023-12-20T04:53:25;7.80;;;2.27;;
23628;SDS011;11991;57.150;-2.134;2023-12-20T04:55:54;5.07;;;2.20;;
23628;SDS011;11991;57.150;-2.134;2023-12-20T04:58:21;6.10;;;1.70;;
23628;SDS011;11991;57.150;-2.134;2023-12-20T05:00:48;4.17;;;1.23;;
23628;SDS011;11991;57.150;-2.134;2023-12-20T05:03:15;8.00;;;2.10;;
23628;SDS011;11991;57.150;-2.134;2023-12-20T05:05:42;9.53;;;2.00;;
23628;SDS011;11991;57.150;-2.134;2023-12-20T05:08:09;4.67;;;1.20;;
23628;SDS011;11991;57.150;-2.134;2023-12-20T05:10:37;7.43;;;1.70;;
23628;SDS011;11991;57.150;-2.134;2023-12-20T05:13:04;3.93;;;1.53;;
23628;SDS011;11991;57.150;-2.134;2023-12-20T05:15:31;6.90;;;2.73;;
23628;SDS011;11991;57.150;-2.134;2023-12-20T05:17:59;4.57;;;1.67;;
23628;SDS011;11991;57.150;-2.134;2023-12-20T05:20:26;5.50;;;1.50;;
23628;SDS011;11991;57.150;-2.134;2023-12-20T05:22:53;4.37;;;1.40;;
23628;SDS011;11991;57.150;-2.134;2023-12-20T05:25:20;6.70;;;1.67;;
23628;SDS011;11991;57.150;-2.134;2023-12-20T05:27:47;6.93;;;1.90;;
23628;SDS011;11991;57.150;-2.134;2023-12-20T05:30:15;5.13;;;1.53;;
23628;SDS011;11991;57.150;-2.134;2023-12-20T05:32:42;8.80;;;2.27;;
23628;SDS011;11991;57.150;-2.134;2023-12-20T05:35:10;6.30;;;2.27;;
23628;SDS011;11991;57.150;-2.134;2023-12-20T05:37:37;5.37;;;1.67;;
23628;SDS011;11991;57.150;-2.134;2023-12-20T05:40:04;4.10;;;1.43;;
23628;SDS011;11991;57.150;-2.134;2023-12-20T05:42:32;4.47;;;1.83;;
23628;SDS011;11991;57.150;-2.134;2023-12-20T05:44:59;3.03;;;1.20;;
23628;SDS011;11991;57.150;-2.134;2023-12-20T05:47:26;3.83;;;1.33;;
23628;SDS011;11991;57.150;-2.134;2023-12-20T05:49:53;4.57;;;1.50;;
23628;SDS011;11991;57.150;-2.134;2023-12-20T05:52:20;5.10;;;1.40;;
23628;SDS011;11991;57.150;-2.134;2023-12-20T05:54:48;2.30;;;1.00;;
23628;SDS011;11991;57.150;-2.134;2023-12-20T05:57:15;2.27;;;1.27;;
23628;SDS011;11991;57.150;-2.134;2023-12-20T05:59:43;2.97;;;1.52;;
23628;SDS011;11991;57.150;-2.134;2023-12-20T06:02:10;3.60;;;1.30;;
23628;SDS011;11991;57.150;-2.134;2023-12-20T06:04:37;3.70;;;1.37;;
23628;SDS011;11991;57.150;-2.134;2023-12-20T06:07:08;4.23;;;2.13;;
23628;SDS011;11991;57.150;-2.134;2023-12-20T06:09:38;1.48;;;1.00;;
23628;SDS011;11991;57.150;-2.134;2023-12-20T06:12:05;2.83;;;1.30;;
23628;SDS011;11991;57.150;-2.134;2023-12-20T06:14:33;6.33;;;2.10;;
23628;SDS011;11991;57.150;-2.134;2023-12-20T06:17:01;6.60;;;1.87;;
23628;SDS011;11991;57.150;-2.134;2023-12-20T06:19:28;10.23;;;2.60;;
23628;SDS011;11991;57.150;-2.134;2023-12-20T06:21:56;6.73;;;1.63;;
23628;SDS011;11991;57.150;-2.134;2023-12-20T06:24:23;11.10;;;2.40;;
23628;SDS011;11991;57.150;-2.134;2023-12-20T06:26:54;6.20;;;1.47;;
23628;SDS011;11991;57.150;-2.134;2023-12-20T06:29:22;4.33;;;1.63;;
23628;SDS011;11991;57.150;-2.134;2023-12-20T06:31:49;2.72;;;1.13;;
23628;SDS011;11991;57.150;-2.134;2023-12-20T06:34:16;5.63;;;1.60;;
23628;SDS011;11991;57.150;-2.134;2023-12-20T06:36:44;7.07;;;2.30;;
23628;SDS011;11991;57.150;-2.134;2023-12-20T06:39:11;5.53;;;1.80;;
23628;SDS011;11991;57.150;-2.134;2023-12-20T06:41:39;7.97;;;1.87;;
23628;SDS011;11991;57.150;-2.134;2023-12-20T06:44:06;5.73;;;1.90;;
23628;SDS011;11991;57.150;-2.134;2023-12-20T06:46:34;4.68;;;1.52;;
23628;SDS011;11991;57.150;-2.134;2023-12-20T06:49:01;2.57;;;1.00;;
23628;SDS011;11991;57.150;-2.134;2023-12-20T06:51:29;7.97;;;1.83;;
23628;SDS011;11991;57.150;-2.134;2023-12-20T06:53:57;2.67;;;1.23;;
23628;SDS011;11991;57.150;-2.134;2023-12-20T06:56:24;2.20;;;1.00;;
23628;SDS011;11991;57.150;-2.134;2023-12-20T06:58:51;3.13;;;1.00;;
23628;SDS011;11991;57.150;-2.134;2023-12-20T07:01:18;4.83;;;1.70;;
23628;SDS011;11991;57.150;-2.134;2023-12-20T07:03:46;3.23;;;1.00;;
23628;SDS011;11991;57.150;-2.134;2023-12-20T07:06:13;3.63;;;1.20;;
23628;SDS011;11991;57.150;-2.134;2023-12-20T07:08:43;6.97;;;1.87;;
23628;SDS011;11991;57.150;-2.134;2023-12-20T07:11:10;3.50;;;1.20;;
23628;SDS011;11991;57.150;-2.134;2023-12-20T07:13:37;5.27;;;1.43;;
23628;SDS011;11991;57.150;-2.134;2023-12-20T07:16:05;6.47;;;1.80;;
23628;SDS011;11991;57.150;-2.134;2023-12-20T07:18:32;1.80;;;1.00;;
23628;SDS011;11991;57.150;-2.134;2023-12-20T07:21:00;4.03;;;1.85;;
23628;SDS011;11991;57.150;-2.134;2023-12-20T07:23:27;2.80;;;1.37;;
23628;SDS011;11991;57.150;-2.134;2023-12-20T07:25:54;2.67;;;1.20;;
23628;SDS011;11991;57.150;-2.134;2023-12-20T07:28:21;6.73;;;1.93;;
23628;SDS011;11991;57.150;-2.134;2023-12-20T07:30:49;3.15;;;1.13;;
23628;SDS011;11991;57.150;-2.134;2023-12-20T07:33:16;2.88;;;1.08;;
23628;SDS011;11991;57.150;-2.134;2023-12-20T07:35:43;5.27;;;1.50;;
23628;SDS011;11991;57.150;-2.134;2023-12-20T07:38:12;2.73;;;1.03;;
23628;SDS011;11991;57.150;-2.134;2023-12-20T07:40:39;2.70;;;1.20;;
23628;SDS011;11991;57.150;-2.134;2023-12-20T07:43:06;3.13;;;0.97;;
23628;SDS011;11991;57.150;-2.134;2023-12-20T07:45:33;2.23;;;0.90;;
23628;SDS011;11991;57.150;-2.134;2023-12-20T07:48:01;2.53;;;1.00;;
23628;SDS011;11991;57.150;-2.134;2023-12-20T07:50:28;2.03;;;1.10;;
23628;SDS011;11991;57.150;-2.134;2023-12-20T07:52:55;2.63;;;1.10;;
23628;SDS011;11991;57.150;-2.134;2023-12-20T07:55:22;1.85;;;1.10;;
23628;SDS011;11991;57.150;-2.134;2023-12-20T07:57:50;3.15;;;1.13;;
23628;SDS011;11991;57.150;-2.134;2023-12-20T08:00:17;2.28;;;1.10;;
23628;SDS011;11991;57.150;-2.134;2023-12-20T08:02:44;1.52;;;0.82;;
23628;SDS011;11991;57.150;-2.134;2023-12-20T08:05:12;4.93;;;1.77;;
23628;SDS011;11991;57.150;-2.134;2023-12-20T08:07:42;1.88;;;0.93;;
23628;SDS011;11991;57.150;-2.134;2023-12-20T08:10:09;2.92;;;1.30;;
23628;SDS011;11991;57.150;-2.134;2023-12-20T08:12:37;1.95;;;0.98;;
23628;SDS011;11991;57.150;-2.134;2023-12-20T08:15:06;3.00;;;1.20;;
23628;SDS011;11991;57.150;-2.134;2023-12-20T08:17:33;2.00;;;0.88;;
23628;SDS011;11991;57.150;-2.134;2023-12-20T08:20:01;0.70;;;0.70;;
23628;SDS011;11991;57.150;-2.134;2023-12-20T08:22:28;7.32;;;1.40;;
23628;SDS011;11991;57.150;-2.134;2023-12-20T08:24:56;3.17;;;0.82;;
23628;SDS011;11991;57.150;-2.134;2023-12-20T08:27:23;3.78;;;1.25;;
23628;SDS011;11991;57.150;-2.134;2023-12-20T08:29:52;2.30;;;1.08;;
23628;SDS011;11991;57.150;-2.134;2023-12-20T08:32:19;3.83;;;0.98;;
23628;SDS011;11991;57.150;-2.134;2023-12-20T08:34:46;2.13;;;0.90;;
23628;SDS011;11991;57.150;-2.134;2023-12-20T08:37:13;1.70;;;1.08;;
23628;SDS011;11991;57.150;-2.134;2023-12-20T08:39:40;5.63;;;1.92;;
23628;SDS011;11991;57.150;-2.134;2023-12-20T08:42:11;2.38;;;0.70;;
23628;SDS011;11991;57.150;-2.134;2023-12-20T08:44:38;2.15;;;0.93;;
23628;SDS011;11991;57.150;-2.134;2023-12-20T08:47:05;1.48;;;0.80;;
23628;SDS011;11991;57.150;-2.134;2023-12-20T08:49:32;2.47;;;0.80;;
23628;SDS011;11991;57.150;-2.134;2023-12-20T08:52:00;2.42;;;0.93;;
23628;SDS011;11991;57.150;-2.134;2023-12-20T08:54:27;1.65;;;0.85;;
23628;SDS011;11991;57.150;-2.134;2023-12-20T08:56:54;1.80;;;0.85;;
23628;SDS011;11991;57.150;-2.134;2023-12-20T08:59:21;3.35;;;1.13;;
23628;SDS011;11991;57.150;-2.134;2023-12-20T09:01:48;2.22;;;0.70;;
23628;SDS011;11991;57.150;-2.134;2023-12-20T09:04:20;2.42;;;0.85;;
23628;SDS011;11991;57.150;-2.134;2023-12-20T09:06:48;2.25;;;1.00;;
23628;SDS011;11991;57.150;-2.134;2023-12-20T09:09:15;1.85;;;1.20;;
23628;SDS011;11991;57.150;-2.134;2023-12-20T09:11:42;2.13;;;1.13;;
23628;SDS011;11991;57.150;-2.134;2023-12-20T09:14:12;0.98;;;0.80;;
23628;SDS011;11991;57.150;-2.134;2023-12-20T09:16:39;1.77;;;0.80;;
23628;SDS011;11991;57.150;-2.134;2023-12-20T09:19:07;1.45;;;1.10;;
23628;SDS011;11991;57.150;-2.134;2023-12-20T09:21:34;1.75;;;1.02;;
23628;SDS011;11991;57.150;-2.134;2023-12-20T09:24:01;1.88;;;1.00;;
23628;SDS011;11991;57.150;-2.134;2023-12-20T09:26:28;1.95;;;0.90;;
23628;SDS011;11991;57.150;-2.134;2023-12-20T09:28:55;0.77;;;0.77;;
23628;SDS011;11991;57.150;-2.134;2023-12-20T09:31:23;1.27;;;0.77;;
23628;SDS011;11991;57.150;-2.134;2023-12-20T09:33:50;1.42;;;1.23;;
23628;SDS011;11991;57.150;-2.134;2023-12-20T09:36:17;1.08;;;0.70;;
23628;SDS011;11991;57.150;-2.134;2023-12-20T09:38:45;2.22;;;1.42;;
23628;SDS011;11991;57.150;-2.134;2023-12-20T09:41:13;3.17;;;1.55;;
23628;SDS011;11991;57.150;-2.134;2023-12-20T09:43:41;5.47;;;3.10;;
23628;SDS011;11991;57.150;-2.134;2023-12-20T09:46:08;4.38;;;2.45;;
23628;SDS011;11991;57.150;-2.134;2023-12-20T09:48:38;2.97;;;1.73;;
23628;SDS011;11991;57.150;-2.134;2023-12-20T09:51:07;1.40;;;0.90;;
23628;SDS011;11991;57.150;-2.134;2023-12-20T09:53:34;2.60;;;1.33;;
23628;SDS011;11991;57.150;-2.134;2023-12-20T09:56:06;1.85;;;0.90;;
23628;SDS011;11991;57.150;-2.134;2023-12-20T09:58:36;1.58;;;0.90;;
23628;SDS011;11991;57.150;-2.134;2023-12-20T10:01:05;2.58;;;0.80;;
23628;SDS011;11991;57.150;-2.134;2023-12-20T10:03:33;1.92;;;1.10;;
23628;SDS011;11991;57.150;-2.134;2023-12-20T10:06:01;1.80;;;1.30;;
23628;SDS011;11991;57.150;-2.134;2023-12-20T10:08:28;1.45;;;1.10;;
23628;SDS011;11991;57.150;-2.134;2023-12-20T10:10:56;1.20;;;1.08;;
23628;SDS011;11991;57.150;-2.134;2023-12-20T10:13:29;2.38;;;0.93;;
23628;SDS011;11991;57.150;-2.134;2023-12-20T10:15:56;2.90;;;0.80;;
23628;SDS011;11991;57.150;-2.134;2023-12-20T10:18:24;2.85;;;1.35;;
23628;SDS011;11991;57.150;-2.134;2023-12-20T10:21:05;1.00;;;0.82;;
23628;SDS011;11991;57.150;-2.134;2023-12-20T10:23:33;1.38;;;0.90;;
23628;SDS011;11991;57.150;-2.134;2023-12-20T10:26:01;2.75;;;1.35;;
23628;SDS011;11991;57.150;-2.134;2023-12-20T10:28:32;1.73;;;1.00;;
23628;SDS011;11991;57.150;-2.134;2023-12-20T10:31:01;1.08;;;0.80;;
23628;SDS011;11991;57.150;-2.134;2023-12-20T10:33:29;2.17;;;0.93;;
23628;SDS011;11991;57.150;-2.134;2023-12-20T10:35:59;2.17;;;1.20;;
23628;SDS011;11991;57.150;-2.134;2023-12-20T10:38:26;1.00;;;0.80;;
23628;SDS011;11991;57.150;-2.134;2023-12-20T10:40:56;1.45;;;0.80;;
23628;SDS011;11991;57.150;-2.134;2023-12-20T10:43:28;1.45;;;0.70;;
23628;SDS011;11991;57.150;-2.134;2023-12-20T10:45:57;2.15;;;0.65;;
23628;SDS011;11991;57.150;-2.134;2023-12-20T10:48:25;2.25;;;1.13;;
23628;SDS011;11991;57.150;-2.134;2023-12-20T10:50:57;1.20;;;0.90;;
23628;SDS011;11991;57.150;-2.134;2023-12-20T10:53:25;2.67;;;1.15;;
23628;SDS011;11991;57.150;-2.134;2023-12-20T10:55:52;2.70;;;1.37;;
23628;SDS011;11991;57.150;-2.134;2023-12-20T10:58:24;2.80;;;0.90;;
23628;SDS011;11991;57.150;-2.134;2023-12-20T11:00:54;2.25;;;0.88;;
23628;SDS011;11991;57.150;-2.134;2023-12-20T11:03:34;0.82;;;0.70;;
23628;SDS011;11991;57.150;-2.134;2023-12-20T11:08:59;0.70;;;0.63;;
23628;SDS011;11991;57.150;-2.134;2023-12-20T11:11:39;1.50;;;0.70;;
23628;SDS011;11991;57.150;-2.134;2023-12-20T11:14:08;1.95;;;0.75;;
23628;SDS011;11991;57.150;-2.134;2023-12-20T11:16:44;1.67;;;0.98;;
23628;SDS011;11991;57.150;-2.134;2023-12-20T11:19:20;1.58;;;1.15;;
23628;SDS011;11991;57.150;-2.134;2023-12-20T11:21:48;2.97;;;1.25;;
23628;SDS011;11991;57.150;-2.134;2023-12-20T11:24:15;1.83;;;1.67;;
23628;SDS011;11991;57.150;-2.134;2023-12-20T11:26:46;2.83;;;0.98;;
23628;SDS011;11991;57.150;-2.134;2023-12-20T11:29:34;1.02;;;0.90;;
23628;SDS011;11991;57.150;-2.134;2023-12-20T11:32:02;5.57;;;1.20;;
23628;SDS011;11991;57.150;-2.134;2023-12-20T11:34:53;1.48;;;1.15;;
23628;SDS011;11991;57.150;-2.134;2023-12-20T11:37:21;1.67;;;1.35;;
23628;SDS011;11991;57.150;-2.134;2023-12-20T11:39:55;3.17;;;0.90;;
23628;SDS011;11991;57.150;-2.134;2023-12-20T11:42:23;0.73;;;0.60;;
23628;SDS011;11991;57.150;-2.134;2023-12-20T11:44:50;1.73;;;0.80;;
23628;SDS011;11991;57.150;-2.134;2023-12-20T11:47:17;0.70;;;0.70;;
23628;SDS011;11991;57.150;-2.134;2023-12-20T11:49:48;1.20;;;0.90;;
23628;SDS011;11991;57.150;-2.134;2023-12-20T11:52:17;2.30;;;0.80;;
23628;SDS011;11991;57.150;-2.134;2023-12-20T11:54:45;1.23;;;0.65;;
23628;SDS011;11991;57.150;-2.134;2023-12-20T11:57:12;0.43;;;0.40;;
23628;SDS011;11991;57.150;-2.134;2023-12-20T11:59:39;1.35;;;0.60;;
23628;SDS011;11991;57.150;-2.134;2023-12-20T12:02:06;1.50;;;1.08;;
23628;SDS011;11991;57.150;-2.134;2023-12-20T12:04:34;2.00;;;1.00;;
23628;SDS011;11991;57.150;-2.134;2023-12-20T12:07:01;1.65;;;0.60;;
23628;SDS011;11991;57.150;-2.134;2023-12-20T12:09:29;1.80;;;1.10;;
23628;SDS011;11991;57.150;-2.134;2023-12-20T12:11:56;2.95;;;1.00;;
23628;SDS011;11991;57.150;-2.134;2023-12-20T12:14:24;1.25;;;0.60;;
23628;SDS011;11991;57.150;-2.134;2023-12-20T12:16:51;3.00;;;1.60;;
23628;SDS011;11991;57.150;-2.134;2023-12-20T12:19:20;2.80;;;0.93;;
23628;SDS011;11991;57.150;-2.134;2023-12-20T12:21:51;3.20;;;1.48;;
23628;SDS011;11991;57.150;-2.134;2023-12-20T12:24:38;2.40;;;1.10;;
23628;SDS011;11991;57.150;-2.134;2023-12-20T12:27:16;1.42;;;1.00;;
23628;SDS011;11991;57.150;-2.134;2023-12-20T12:30:04;2.38;;;1.40;;
23628;SDS011;11991;57.150;-2.134;2023-12-20T12:32:31;1.77;;;1.00;;
23628;SDS011;11991;57.150;-2.134;2023-12-20T12:34:59;1.50;;;0.88;;
23628;SDS011;11991;57.150;-2.134;2023-12-20T12:37:27;2.70;;;1.05;;
23628;SDS011;11991;57.150;-2.134;2023-12-20T12:39:54;0.85;;;0.70;;
23628;SDS011;11991;57.150;-2.134;2023-12-20T12:42:21;1.33;;;0.80;;
23628;SDS011;11991;57.150;-2.134;2023-12-20T12:44:52;1.15;;;0.90;;
23628;SDS011;11991;57.150;-2.134;2023-12-20T12:47:19;2.50;;;1.88;;
23628;SDS011;11991;57.150;-2.134;2023-12-20T12:49:46;2.53;;;0.90;;
23628;SDS011;11991;57.150;-2.134;2023-12-20T12:52:13;1.15;;;1.00;;
23628;SDS011;11991;57.150;-2.134;2023-12-20T12:54:41;1.02;;;0.90;;
23628;SDS011;11991;57.150;-2.134;2023-12-20T12:57:09;0.60;;;0.60;;
23628;SDS011;11991;57.150;-2.134;2023-12-20T12:59:36;1.17;;;0.90;;
23628;SDS011;11991;57.150;-2.134;2023-12-20T13:02:06;1.70;;;0.95;;
23628;SDS011;11991;57.150;-2.134;2023-12-20T13:04:34;0.95;;;0.88;;
23628;SDS011;11991;57.150;-2.134;2023-12-20T13:07:02;0.70;;;0.70;;
23628;SDS011;11991;57.150;-2.134;2023-12-20T13:09:30;1.42;;;0.90;;
23628;SDS011;11991;57.150;-2.134;2023-12-20T13:11:57;0.80;;;0.70;;
23628;SDS011;11991;57.150;-2.134;2023-12-20T13:14:25;1.02;;;0.90;;
23628;SDS011;11991;57.150;-2.134;2023-12-20T13:16:52;1.23;;;0.90;;
23628;SDS011;11991;57.150;-2.134;2023-12-20T13:19:19;1.10;;;0.88;;
23628;SDS011;11991;57.150;-2.134;2023-12-20T13:21:47;1.02;;;0.90;;
23628;SDS011;11991;57.150;-2.134;2023-12-20T13:24:15;1.17;;;0.80;;
23628;SDS011;11991;57.150;-2.134;2023-12-20T13:26:42;1.50;;;0.50;;
23628;SDS011;11991;57.150;-2.134;2023-12-20T13:29:09;0.80;;;0.60;;
23628;SDS011;11991;57.150;-2.134;2023-12-20T13:31:36;0.45;;;0.40;;
23628;SDS011;11991;57.150;-2.134;2023-12-20T13:34:05;0.57;;;0.57;;
23628;SDS011;11991;57.150;-2.134;2023-12-20T13:36:33;0.70;;;0.70;;
23628;SDS011;11991;57.150;-2.134;2023-12-20T13:39:00;0.60;;;0.60;;
23628;SDS011;11991;57.150;-2.134;2023-12-20T13:41:29;0.60;;;0.60;;
23628;SDS011;11991;57.150;-2.134;2023-12-20T13:43:56;0.88;;;0.75;;
23628;SDS011;11991;57.150;-2.134;2023-12-20T13:46:23;0.50;;;0.50;;
23628;SDS011;11991;57.150;-2.134;2023-12-20T13:48:51;0.47;;;0.40;;
23628;SDS011;11991;57.150;-2.134;2023-12-20T13:51:18;0.60;;;0.60;;
23628;SDS011;11991;57.150;-2.134;2023-12-20T13:53:45;0.65;;;0.50;;
23628;SDS011;11991;57.150;-2.134;2023-12-20T13:56:12;0.50;;;0.50;;
23628;SDS011;11991;57.150;-2.134;2023-12-20T13:58:39;0.50;;;0.50;;
23628;SDS011;11991;57.150;-2.134;2023-12-20T14:01:09;0.60;;;0.60;;
23628;SDS011;11991;57.150;-2.134;2023-12-20T14:03:37;0.50;;;0.50;;
23628;SDS011;11991;57.150;-2.134;2023-12-20T14:06:04;0.40;;;0.40;;
23628;SDS011;11991;57.150;-2.134;2023-12-20T14:08:32;0.68;;;0.68;;
23628;SDS011;11991;57.150;-2.134;2023-12-20T14:10:59;0.50;;;0.50;;
23628;SDS011;11991;57.150;-2.134;2023-12-20T14:13:27;0.68;;;0.55;;
23628;SDS011;11991;57.150;-2.134;2023-12-20T14:15:55;0.50;;;0.50;;
23628;SDS011;11991;57.150;-2.134;2023-12-20T14:18:22;0.55;;;0.55;;
23628;SDS011;11991;57.150;-2.134;2023-12-20T14:20:49;0.50;;;0.50;;
23628;SDS011;11991;57.150;-2.134;2023-12-20T14:23:17;0.50;;;0.50;;
23628;SDS011;11991;57.150;-2.134;2023-12-20T14:25:44;0.60;;;0.60;;
23628;SDS011;11991;57.150;-2.134;2023-12-20T14:28:18;0.55;;;0.55;;
23628;SDS011;11991;57.150;-2.134;2023-12-20T14:30:46;0.88;;;0.60;;
23628;SDS011;11991;57.150;-2.134;2023-12-20T14:33:13;0.50;;;0.50;;
23628;SDS011;11991;57.150;-2.134;2023-12-20T14:35:40;0.70;;;0.70;;
23628;SDS011;11991;57.150;-2.134;2023-12-20T14:38:11;0.70;;;0.70;;
23628;SDS011;11991;57.150;-2.134;2023-12-20T14:40:41;0.73;;;0.60;;